Time;durP1;ratioP1;P1;durP2;ratioP2;P2;SDS_P1;SDS_P2;PMS_P1;PMS_P2;Temp;Humidity;BMP_temperature;BMP_pressure;BME280_temperature;BME280_humidity;BME280_pressure;Samples;Min_cycle;Max_cycle;Signal;HPM_P1;HPM_P2
2023/09/22 00:03:30;;;;;;;1.42;0.75;;;14.60;99.90;;;;;;7301032;32;20111;-58
2023/09/22 00:07:31;;;;;;;1.52;1.27;;;14.50;99.90;;;;;;7306320;32;20620;-58
2023/09/22 00:11:33;;;;;;;3.72;1.60;;;14.50;99.90;;;;;;7304418;32;20269;-57
2023/09/22 00:15:35;;;;;;;4.50;1.48;;;14.50;99.90;;;;;;7301939;32;20130;-57
2023/09/22 00:19:37;;;;;;;3.15;1.52;;;14.40;99.90;;;;;;7310223;32;20199;-56
2023/09/22 00:23:38;;;;;;;1.98;1.20;;;14.40;99.90;;;;;;7300449;32;20131;-56
2023/09/22 00:27:40;;;;;;;1.77;1.27;;;14.30;99.90;;;;;;7303538;32;20115;-57
2023/09/22 00:31:42;;;;;;;2.35;1.42;;;14.30;99.90;;;;;;7308295;32;20115;-56
2023/09/22 00:35:44;;;;;;;2.35;1.30;;;14.30;99.90;;;;;;7299450;32;20124;-54
2023/09/22 00:39:46;;;;;;;3.62;1.45;;;14.20;99.90;;;;;;7306361;32;20201;-54
2023/09/22 00:43:48;;;;;;;3.65;1.40;;;14.20;99.90;;;;;;7302769;32;20131;-54
2023/09/22 00:47:49;;;;;;;2.08;1.60;;;14.20;99.90;;;;;;7305318;32;20107;-54
2023/09/22 00:51:52;;;;;;;2.50;1.50;;;14.20;99.90;;;;;;7306176;32;20172;-57
2023/09/22 00:55:54;;;;;;;4.18;1.60;;;14.20;99.90;;;;;;7303824;32;20108;-56
2023/09/22 00:59:56;;;;;;;3.97;1.73;;;14.10;99.90;;;;;;7300354;32;20116;-57
2023/09/22 01:03:58;;;;;;;2.25;1.33;;;14.10;99.90;;;;;;7302472;32;20115;-56
2023/09/22 01:08:00;;;;;;;3.78;1.48;;;14.10;99.90;;;;;;7309588;32;20130;-56
2023/09/22 01:12:02;;;;;;;4.70;1.20;;;14.00;99.90;;;;;;7301755;32;20482;-57
2023/09/22 01:16:04;;;;;;;3.50;1.00;;;14.00;99.90;;;;;;7301040;32;20100;-57
2023/09/22 01:20:07;;;;;;;2.15;1.00;;;14.00;99.90;;;;;;7306089;32;20161;-58
2023/09/22 01:24:11;;;;;;;1.67;1.10;;;14.00;99.90;;;;;;7307807;32;20179;-58
2023/09/22 01:28:14;;;;;;;2.35;0.90;;;14.00;99.90;;;;;;7302745;32;20157;-58
2023/09/22 01:32:16;;;;;;;4.00;1.00;;;13.90;99.90;;;;;;7299678;32;20786;-54
2023/09/22 01:36:17;;;;;;;2.08;1.10;;;14.00;99.90;;;;;;7304328;32;20237;-57
2023/09/22 01:40:19;;;;;;;2.12;1.20;;;14.00;99.90;;;;;;7298081;32;20196;-56
2023/09/22 01:44:22;;;;;;;2.72;1.33;;;13.90;99.90;;;;;;7298192;32;20151;-56
2023/09/22 01:48:24;;;;;;;3.00;1.77;;;13.90;99.90;;;;;;7310355;32;20218;-58
2023/09/22 01:52:26;;;;;;;4.90;1.30;;;13.90;99.90;;;;;;7301711;32;20245;-56
2023/09/22 01:56:27;;;;;;;2.40;1.48;;;13.90;99.90;;;;;;7306658;32;20134;-57
2023/09/22 02:00:30;;;;;;;4.22;1.45;;;13.80;99.90;;;;;;7304371;32;20255;-58
2023/09/22 02:04:32;;;;;;;3.25;1.30;;;13.80;99.90;;;;;;7311501;32;20491;-58
2023/09/22 02:08:34;;;;;;;4.25;1.42;;;13.70;99.90;;;;;;7309204;32;20522;-58
2023/09/22 02:12:37;;;;;;;3.33;1.60;;;13.60;99.90;;;;;;7312843;32;20163;-56
2023/09/22 02:16:40;;;;;;;4.30;1.30;;;13.60;99.90;;;;;;7305738;32;20580;-56
2023/09/22 02:20:42;;;;;;;3.95;1.58;;;13.50;99.90;;;;;;7290985;32;20132;-58
2023/09/22 02:24:44;;;;;;;2.47;1.73;;;13.50;99.90;;;;;;7311657;32;20501;-57
2023/09/22 02:28:51;;;;;;;2.67;1.70;;;13.50;99.90;;;;;;7309533;32;20116;-57
2023/09/22 02:32:54;;;;;;;3.20;1.48;;;13.40;99.90;;;;;;7305722;32;20177;-56
2023/09/22 02:36:55;;;;;;;3.45;1.65;;;13.30;99.90;;;;;;7307163;32;20243;-56
2023/09/22 02:40:57;;;;;;;5.18;1.62;;;13.30;99.90;;;;;;7308364;32;20617;-56
2023/09/22 02:44:59;;;;;;;3.15;1.62;;;13.20;99.90;;;;;;7302928;32;20115;-57
2023/09/22 02:49:01;;;;;;;5.68;1.77;;;13.00;99.90;;;;;;7306099;32;20533;-56
2023/09/22 02:53:03;;;;;;;4.95;1.73;;;13.00;99.90;;;;;;7304513;32;20139;-57
2023/09/22 02:57:06;;;;;;;5.18;1.70;;;12.90;99.90;;;;;;7304733;32;20210;-58
2023/09/22 03:01:09;;;;;;;5.72;1.90;;;12.80;99.90;;;;;;7303958;32;20133;-57
2023/09/22 03:05:14;;;;;;;3.78;1.83;;;12.80;99.90;;;;;;7293233;32;20214;-56
2023/09/22 03:09:16;;;;;;;2.80;1.80;;;12.70;99.90;;;;;;7305228;32;20112;-57
2023/09/22 03:13:18;;;;;;;5.87;1.80;;;12.70;99.90;;;;;;7302340;32;20108;-56
2023/09/22 03:17:20;;;;;;;4.47;1.60;;;12.60;99.90;;;;;;7308068;32;20111;-58
2023/09/22 03:21:23;;;;;;;4.95;1.50;;;12.50;99.90;;;;;;7303699;32;20223;-57
2023/09/22 03:25:25;;;;;;;3.58;1.73;;;12.60;99.90;;;;;;7304473;32;20218;-58
2023/09/22 03:29:27;;;;;;;5.68;1.70;;;12.50;99.90;;;;;;7304792;32;20180;-57
2023/09/22 03:33:28;;;;;;;4.40;1.25;;;12.60;99.90;;;;;;7307043;32;20143;-54
2023/09/22 03:37:31;;;;;;;2.70;1.42;;;12.60;99.90;;;;;;7303728;32;20139;-55
2023/09/22 03:41:35;;;;;;;5.47;1.17;;;12.70;99.90;;;;;;7302725;32;20135;-56
2023/09/22 03:45:37;;;;;;;5.37;1.50;;;12.70;99.90;;;;;;7304349;32;20226;-54
2023/09/22 03:49:39;;;;;;;2.35;1.30;;;12.80;99.90;;;;;;7309648;32;20456;-55
2023/09/22 03:53:41;;;;;;;5.28;1.23;;;12.80;99.90;;;;;;7309122;32;20135;-54
2023/09/22 03:57:43;;;;;;;3.17;1.40;;;12.90;99.90;;;;;;7309272;32;20120;-55
2023/09/22 04:01:45;;;;;;;2.62;1.40;;;12.90;99.90;;;;;;7305292;32;20123;-55
2023/09/22 04:05:47;;;;;;;5.10;1.60;;;12.90;99.90;;;;;;7306290;32;20315;-54
2023/09/22 04:09:49;;;;;;;5.25;1.35;;;12.90;99.90;;;;;;7303480;32;20703;-55
2023/09/22 04:13:51;;;;;;;3.45;1.37;;;12.90;99.90;;;;;;7304841;32;20139;-55
2023/09/22 04:17:53;;;;;;;3.80;1.48;;;12.90;99.90;;;;;;7311440;32;20167;-56
2023/09/22 04:21:56;;;;;;;4.97;1.45;;;12.80;99.90;;;;;;7302870;32;20112;-56
2023/09/22 04:26:01;;;;;;;3.22;1.37;;;12.80;99.90;;;;;;7306027;32;20207;-55
2023/09/22 04:30:07;;;;;;;2.80;1.37;;;12.80;99.90;;;;;;7306652;32;20530;-57
2023/09/22 04:34:09;;;;;;;4.78;1.40;;;12.80;99.90;;;;;;7282723;32;20230;-56
2023/09/22 04:38:11;;;;;;;4.47;1.23;;;12.80;99.90;;;;;;7302956;32;20183;-56
2023/09/22 04:42:13;;;;;;;3.03;1.02;;;12.80;99.90;;;;;;7293409;32;20222;-55
2023/09/22 04:46:19;;;;;;;2.58;1.25;;;12.80;99.90;;;;;;7305003;32;20193;-56
2023/09/22 04:50:22;;;;;;;2.65;1.33;;;12.90;99.90;;;;;;7301037;32;20220;-55
2023/09/22 04:54:24;;;;;;;2.70;1.23;;;12.90;99.90;;;;;;7297643;32;20128;-57
2023/09/22 04:58:26;;;;;;;3.20;1.10;;;12.90;99.90;;;;;;7298690;32;20108;-55
2023/09/22 05:02:28;;;;;;;3.03;1.17;;;13.00;99.90;;;;;;7282515;32;20226;-55
2023/09/22 05:06:29;;;;;;;3.10;1.20;;;12.90;99.90;;;;;;7301293;32;20107;-54
2023/09/22 05:10:31;;;;;;;6.65;1.33;;;12.90;99.90;;;;;;7299107;32;20275;-56
2023/09/22 05:14:33;;;;;;;4.45;1.20;;;12.90;99.90;;;;;;7297177;32;20166;-55
2023/09/22 05:18:39;;;;;;;3.65;1.23;;;12.80;99.90;;;;;;7304846;32;20204;-55
2023/09/22 05:22:42;;;;;;;3.53;1.10;;;12.70;99.90;;;;;;7303616;32;20115;-56
2023/09/22 05:26:44;;;;;;;10.90;2.25;;;12.70;99.90;;;;;;7304952;32;20138;-57
2023/09/22 05:30:45;;;;;;;2.40;1.45;;;12.70;99.90;;;;;;7302423;32;20545;-57
2023/09/22 05:34:47;;;;;;;4.93;1.45;;;12.60;99.90;;;;;;7307789;32;20274;-55
2023/09/22 05:38:49;;;;;;;3.78;1.35;;;12.60;99.90;;;;;;7300772;32;20111;-58
2023/09/22 05:42:51;;;;;;;4.75;1.30;;;12.60;99.90;;;;;;7301500;32;20325;-56
2023/09/22 05:46:52;;;;;;;3.55;1.42;;;12.50;99.90;;;;;;7302412;32;20497;-57
2023/09/22 05:50:56;;;;;;;2.35;1.10;;;12.50;99.90;;;;;;7297557;32;20175;-57
2023/09/22 05:54:58;;;;;;;2.85;1.40;;;12.50;99.90;;;;;;7302316;32;20867;-56
2023/09/22 05:59:00;;;;;;;2.78;1.55;;;12.50;99.90;;;;;;7303789;32;20134;-57
2023/09/22 06:03:02;;;;;;;5.07;1.50;;;12.50;99.90;;;;;;7310122;32;20207;-57
2023/09/22 06:07:07;;;;;;;5.87;1.58;;;12.50;99.90;;;;;;7299431;32;20127;-57
2023/09/22 06:11:09;;;;;;;4.15;1.65;;;12.40;99.90;;;;;;7311462;32;20222;-56
2023/09/22 06:15:12;;;;;;;6.25;1.87;;;12.40;99.90;;;;;;7307365;32;20194;-56
2023/09/22 06:19:15;;;;;;;4.78;1.70;;;12.50;99.90;;;;;;7304404;32;20159;-56
2023/09/22 06:23:17;;;;;;;4.20;2.10;;;12.50;99.90;;;;;;7304445;32;20100;-56
2023/09/22 06:27:19;;;;;;;6.78;1.83;;;12.50;99.90;;;;;;7308647;32;20485;-56
2023/09/22 06:31:21;;;;;;;5.62;2.12;;;12.50;99.90;;;;;;7301349;32;20199;-57
2023/09/22 06:35:22;;;;;;;11.18;2.10;;;12.50;99.90;;;;;;7306947;32;20103;-57
2023/09/22 06:39:24;;;;;;;7.50;2.05;;;12.50;99.90;;;;;;7310904;32;20194;-57
2023/09/22 06:43:27;;;;;;;3.25;1.85;;;12.50;99.90;;;;;;7291467;32;20666;-57
2023/09/22 06:47:28;;;;;;;6.65;1.90;;;12.50;99.90;;;;;;7299940;32;20553;-56
2023/09/22 06:51:31;;;;;;;5.10;1.90;;;12.60;99.90;;;;;;7305798;32;20131;-57
2023/09/22 06:55:33;;;;;;;4.78;1.90;;;12.60;99.90;;;;;;7300806;32;20143;-57
2023/09/22 06:59:35;;;;;;;3.92;2.05;;;12.60;99.90;;;;;;7299862;32;20177;-56
2023/09/22 07:03:38;;;;;;;3.42;1.83;;;12.70;99.90;;;;;;7302976;32;20250;-56
2023/09/22 07:07:40;;;;;;;5.87;2.75;;;12.70;99.90;;;;;;7297986;32;20112;-57
2023/09/22 07:11:42;;;;;;;3.78;2.15;;;12.80;99.90;;;;;;7307911;32;20541;-57
2023/09/22 07:15:44;;;;;;;8.07;2.47;;;12.90;99.90;;;;;;7298565;32;20669;-57
2023/09/22 07:19:46;;;;;;;4.93;2.15;;;13.00;99.90;;;;;;7304014;32;20108;-58
2023/09/22 07:23:47;;;;;;;3.58;1.70;;;13.10;99.90;;;;;;7300515;32;20116;-57
2023/09/22 07:27:50;;;;;;;5.95;2.30;;;13.20;99.90;;;;;;7302187;32;20260;-58
2023/09/22 07:31:52;;;;;;;5.55;1.83;;;13.30;99.90;;;;;;7303551;32;20384;-58
2023/09/22 07:35:54;;;;;;;5.62;2.05;;;13.40;99.90;;;;;;7303023;32;20540;-57
2023/09/22 07:39:55;;;;;;;5.78;1.77;;;13.40;99.90;;;;;;7305605;32;20857;-58
2023/09/22 07:43:57;;;;;;;4.93;2.00;;;13.50;99.90;;;;;;7300755;32;20566;-58
2023/09/22 07:48:00;;;;;;;2.92;1.70;;;13.60;99.90;;;;;;7304143;32;20725;-57
2023/09/22 07:52:02;;;;;;;5.87;1.65;;;13.60;99.90;;;;;;7302453;32;20231;-57
2023/09/22 07:56:04;;;;;;;3.72;1.30;;;13.70;99.90;;;;;;7286836;32;20112;-57
2023/09/22 08:00:10;;;;;;;5.40;1.60;;;13.80;99.90;;;;;;7303260;32;20222;-57
2023/09/22 08:04:12;;;;;;;3.35;1.20;;;13.90;99.90;;;;;;7297690;32;20123;-58
2023/09/22 08:08:15;;;;;;;5.10;1.15;;;14.00;99.90;;;;;;7296089;32;20246;-58
2023/09/22 08:12:17;;;;;;;1.87;1.00;;;14.00;99.90;;;;;;7300172;32;20173;-57
2023/09/22 08:16:20;;;;;;;6.90;1.20;;;14.20;99.90;;;;;;7303461;32;20568;-57
2023/09/22 08:20:22;;;;;;;4.10;1.30;;;14.40;99.90;;;;;;7301131;32;20165;-57
2023/09/22 08:24:23;;;;;;;3.87;1.05;;;14.70;99.90;;;;;;7305918;32;20104;-58
2023/09/22 08:28:26;;;;;;;4.00;0.88;;;14.90;99.90;;;;;;7299679;32;20151;-57
2023/09/22 08:32:27;;;;;;;2.78;0.77;;;15.10;99.90;;;;;;7301766;32;20161;-56
2023/09/22 08:36:30;;;;;;;2.80;0.80;;;15.30;99.90;;;;;;7290995;32;20322;-58
2023/09/22 08:40:32;;;;;;;2.97;1.12;;;15.40;99.90;;;;;;7302445;32;20112;-58
2023/09/22 08:44:34;;;;;;;4.43;0.70;;;15.60;99.90;;;;;;7298703;32;20164;-57
2023/09/22 08:48:36;;;;;;;1.92;0.70;;;16.00;99.90;;;;;;7301783;32;20116;-59
2023/09/22 08:52:40;;;;;;;0.93;0.40;;;16.00;99.90;;;;;;7301185;32;20761;-54
2023/09/22 08:56:43;;;;;;;2.65;0.45;;;15.60;99.90;;;;;;7297505;32;20126;-58
2023/09/22 09:00:48;;;;;;;3.53;0.52;;;15.50;99.90;;;;;;7299856;32;20111;-57
2023/09/22 09:04:50;;;;;;;1.95;0.68;;;15.30;99.90;;;;;;7296257;32;20953;-57
2023/09/22 09:09:09;;;;;;;4.00;0.70;;;15.30;99.90;;;;;;7302144;32;20126;-57
2023/09/22 09:13:29;;;;;;;2.30;0.50;;;15.40;99.90;;;;;;7296159;32;20285;-56
2023/09/22 09:17:31;;;;;;;3.80;0.70;;;15.30;99.90;;;;;;7299950;32;20139;-59
2023/09/22 09:21:33;;;;;;;2.08;0.50;;;15.40;99.90;;;;;;7299418;32;20253;-57
2023/09/22 09:25:40;;;;;;;1.02;0.30;;;15.40;99.90;;;;;;7297860;32;20218;-56
2023/09/22 09:29:42;;;;;;;1.75;0.30;;;15.80;99.90;;;;;;7299145;32;20112;-58
2023/09/22 09:33:51;;;;;;;2.03;0.60;;;17.30;99.90;;;;;;7301744;32;20242;-58
2023/09/22 09:38:03;;;;;;;2.33;0.52;;;18.50;99.90;;;;;;7299350;32;20116;-56
2023/09/22 09:42:05;;;;;;;1.73;0.70;;;19.20;99.90;;;;;;7293718;32;20120;-56
2023/09/22 09:46:09;;;;;;;1.87;0.50;;;19.00;99.90;;;;;;7294321;32;20124;-57
2023/09/22 09:50:12;;;;;;;1.75;0.57;;;18.90;99.90;;;;;;7299862;32;20194;-57
2023/09/22 09:54:19;;;;;;;3.50;0.43;;;19.10;99.90;;;;;;7303427;32;20112;-57
2023/09/22 09:58:24;;;;;;;1.85;0.60;;;18.30;99.90;;;;;;7299785;32;20165;-56
2023/09/22 10:02:27;;;;;;;2.53;0.50;;;18.40;99.90;;;;;;7301638;32;20112;-58
2023/09/22 10:06:31;;;;;;;3.28;0.70;;;17.90;99.90;;;;;;7295530;32;20167;-57
2023/09/22 10:10:43;;;;;;;1.65;0.50;;;17.30;99.90;;;;;;7302257;32;20112;-58
2023/09/22 10:14:46;;;;;;;3.08;0.50;;;16.80;99.90;;;;;;7301956;32;20739;-57
2023/09/22 10:18:59;;;;;;;3.85;0.60;;;16.50;99.90;;;;;;7306566;32;20104;-57
2023/09/22 10:23:17;;;;;;;2.47;0.68;;;16.20;99.90;;;;;;7303490;32;20195;-56
2023/09/22 10:27:19;;;;;;;3.60;0.60;;;17.50;99.90;;;;;;7304551;32;20147;-58
2023/09/22 10:31:21;;;;;;;4.15;0.70;;;18.70;99.90;;;;;;7288504;32;22855;-57
2023/09/22 10:35:41;;;;;;;1.62;0.47;;;19.30;99.90;;;;;;7305524;32;20112;-56
2023/09/22 10:40:11;;;;;;;3.12;0.73;;;19.70;99.90;;;;;;7312347;32;20112;-56
2023/09/22 10:44:13;;;;;;;3.25;0.60;;;19.40;99.90;;;;;;7308839;32;20134;-58
2023/09/22 10:48:15;;;;;;;2.30;0.62;;;19.50;99.90;;;;;;7306456;32;20514;-56
2023/09/22 10:52:18;;;;;;;2.42;0.60;;;18.70;99.90;;;;;;7304195;32;20108;-56
2023/09/22 10:56:20;;;;;;;2.58;0.40;;;18.00;99.90;;;;;;7311314;32;20107;-56
2023/09/22 11:00:23;;;;;;;5.35;0.60;;;17.60;99.90;;;;;;7306655;32;20252;-56
2023/09/22 11:04:45;;;;;;;3.55;0.77;;;17.30;99.90;;;;;;7309416;32;20146;-56
2023/09/22 11:08:52;;;;;;;2.05;0.55;;;17.30;99.90;;;;;;7304364;32;20489;-56
2023/09/22 11:12:56;;;;;;;1.33;0.50;;;17.40;99.90;;;;;;7302999;32;20193;-56
2023/09/22 11:16:58;;;;;;;2.50;0.85;;;17.70;99.90;;;;;;7304122;32;20160;-57
2023/09/22 11:21:11;;;;;;;4.07;0.88;;;18.10;99.90;;;;;;7301879;32;20112;-57
2023/09/22 11:25:13;;;;;;;1.75;0.50;;;18.00;99.90;;;;;;7304790;32;20234;-58
2023/09/22 11:29:16;;;;;;;3.47;0.68;;;18.20;99.90;;;;;;7306142;32;20395;-56
2023/09/22 11:33:18;;;;;;;2.37;0.60;;;18.60;99.90;;;;;;7293136;32;20412;-56
2023/09/22 11:37:30;;;;;;;1.62;0.50;;;18.40;99.90;;;;;;7296152;32;20108;-57
2023/09/22 11:41:32;;;;;;;2.45;0.50;;;18.10;99.90;;;;;;7301453;32;20548;-58
2023/09/22 11:45:34;;;;;;;2.12;0.82;;;17.80;99.90;;;;;;7301936;32;20100;-57
2023/09/22 11:49:37;;;;;;;2.25;0.60;;;17.70;99.90;;;;;;7299976;32;20138;-57
2023/09/22 11:53:39;;;;;;;2.70;0.82;;;17.60;99.90;;;;;;7307291;32;20116;-57
2023/09/22 11:57:42;;;;;;;2.62;0.60;;;17.70;99.90;;;;;;7304770;32;20546;-56
2023/09/22 12:01:46;;;;;;;2.37;0.60;;;17.70;99.90;;;;;;7305571;32;20135;-58
2023/09/22 12:05:48;;;;;;;2.55;0.55;;;17.90;99.90;;;;;;7307258;32;20172;-57
2023/09/22 12:09:50;;;;;;;3.70;0.60;;;17.90;99.90;;;;;;7302883;32;20190;-58
2023/09/22 12:13:52;;;;;;;1.48;0.50;;;17.90;99.90;;;;;;7296305;32;20746;-57
2023/09/22 12:17:54;;;;;;;1.90;0.60;;;17.90;99.90;;;;;;7307281;32;20127;-57
2023/09/22 12:21:56;;;;;;;1.60;0.68;;;17.90;99.90;;;;;;7302063;32;20127;-56
2023/09/22 12:25:57;;;;;;;1.95;0.50;;;18.20;99.90;;;;;;7296053;32;20495;-57
2023/09/22 12:30:00;;;;;;;1.95;0.43;;;18.10;99.90;;;;;;7298720;32;20132;-57
2023/09/22 12:34:01;;;;;;;1.85;0.57;;;18.00;99.90;;;;;;7301913;32;20267;-57
2023/09/22 12:38:06;;;;;;;4.37;0.50;;;17.90;99.90;;;;;;7296142;32;20134;-57
2023/09/22 12:42:08;;;;;;;1.85;0.57;;;17.80;99.90;;;;;;7302126;32;20655;-56
2023/09/22 12:46:12;;;;;;;2.25;0.60;;;17.60;99.90;;;;;;7299527;32;20257;-57
2023/09/22 12:50:14;;;;;;;2.47;0.90;;;17.50;99.90;;;;;;7316791;32;20557;-57
2023/09/22 12:54:16;;;;;;;1.73;0.52;;;17.90;99.90;;;;;;7299533;32;20130;-57
2023/09/22 12:58:20;;;;;;;1.20;0.50;;;18.20;99.90;;;;;;7299269;32;20131;-57
2023/09/22 13:02:21;;;;;;;2.70;0.40;;;18.30;99.90;;;;;;7303436;32;20557;-57
2023/09/22 13:06:23;;;;;;;1.35;0.60;;;18.00;99.90;;;;;;7307052;32;20234;-57
2023/09/22 13:10:25;;;;;;;1.42;0.43;;;17.90;99.90;;;;;;7303226;32;20116;-57
2023/09/22 13:14:27;;;;;;;1.30;0.60;;;18.00;99.90;;;;;;7299140;32;20155;-57
2023/09/22 13:18:28;;;;;;;2.80;0.57;;;18.40;99.90;;;;;;7306207;32;20123;-57
2023/09/22 13:22:30;;;;;;;2.15;0.57;;;18.70;99.90;;;;;;7300281;32;20183;-57
2023/09/22 13:26:32;;;;;;;1.37;0.50;;;18.70;99.90;;;;;;7307344;32;20213;-57
2023/09/22 13:30:39;;;;;;;2.40;0.77;;;18.70;99.90;;;;;;7297445;32;20184;-57
2023/09/22 13:34:41;;;;;;;2.08;0.75;;;19.00;99.90;;;;;;7305331;32;20378;-57
2023/09/22 13:38:44;;;;;;;2.03;0.60;;;19.00;99.90;;;;;;7301837;32;20181;-58
2023/09/22 13:42:46;;;;;;;4.47;0.65;;;19.10;99.90;;;;;;7297777;32;20546;-57
2023/09/22 13:46:48;;;;;;;3.03;0.70;;;18.90;99.90;;;;;;7296672;32;20218;-57
2023/09/22 13:50:51;;;;;;;1.25;0.65;;;18.70;99.90;;;;;;7295872;32;20157;-58
2023/09/22 13:54:53;;;;;;;1.92;0.70;;;18.60;99.90;;;;;;7303358;32;20116;-57
2023/09/22 13:58:55;;;;;;;3.15;0.60;;;18.60;99.90;;;;;;7300486;32;20156;-57
2023/09/22 14:02:57;;;;;;;2.72;0.70;;;18.50;99.90;;;;;;7302438;32;20213;-57
2023/09/22 14:06:58;;;;;;;4.95;0.80;;;18.50;99.90;;;;;;7290672;32;20116;-57
2023/09/22 14:11:00;;;;;;;1.30;0.55;;;18.50;99.90;;;;;;7295869;32;20444;-57
2023/09/22 14:15:03;;;;;;;3.45;0.75;;;18.40;99.90;;;;;;7304161;32;20583;-57
2023/09/22 14:19:04;;;;;;;3.00;0.57;;;18.30;99.90;;;;;;7292925;32;20100;-58
2023/09/22 14:23:07;;;;;;;3.97;0.70;;;18.20;99.90;;;;;;7301313;32;20172;-57
2023/09/22 14:27:08;;;;;;;2.35;0.52;;;18.20;99.90;;;;;;7307606;32;20109;-57
2023/09/22 14:31:18;;;;;;;1.92;0.60;;;18.20;99.90;;;;;;7304217;32;20134;-57
2023/09/22 14:35:20;;;;;;;1.95;0.80;;;18.30;99.90;;;;;;7305536;32;20146;-58
2023/09/22 14:39:22;;;;;;;3.75;0.75;;;18.30;99.90;;;;;;7304894;32;20334;-57
2023/09/22 14:43:24;;;;;;;1.35;0.57;;;18.40;99.90;;;;;;7311616;32;20143;-58
2023/09/22 14:47:26;;;;;;;1.42;0.50;;;18.60;99.90;;;;;;7303199;32;20112;-57
2023/09/22 14:51:28;;;;;;;3.80;0.80;;;18.60;99.90;;;;;;7313588;32;20498;-57
2023/09/22 14:55:29;;;;;;;3.72;0.93;;;18.40;99.90;;;;;;7303120;32;20116;-57
2023/09/22 14:59:31;;;;;;;0.73;0.40;;;18.20;99.90;;;;;;7319001;32;20264;-57
2023/09/22 15:03:33;;;;;;;1.48;0.62;;;18.00;99.90;;;;;;7310662;32;20119;-58
2023/09/22 15:07:35;;;;;;;1.90;0.60;;;17.80;99.90;;;;;;7308681;32;20127;-58
2023/09/22 15:11:37;;;;;;;1.17;0.55;;;17.70;99.90;;;;;;7307544;32;20183;-58
2023/09/22 15:15:39;;;;;;;1.58;0.60;;;17.60;99.90;;;;;;7305561;32;20177;-57
2023/09/22 15:19:41;;;;;;;1.83;0.80;;;17.50;99.90;;;;;;7301209;32;20144;-58
2023/09/22 15:23:43;;;;;;;4.43;0.70;;;17.40;99.90;;;;;;7296870;32;20221;-57
2023/09/22 15:27:44;;;;;;;3.17;1.00;;;17.30;99.90;;;;;;7304384;32;20581;-58
2023/09/22 15:31:46;;;;;;;2.47;0.70;;;17.20;99.90;;;;;;7304550;32;20111;-57
2023/09/22 15:35:48;;;;;;;1.73;0.62;;;17.20;99.90;;;;;;7310496;32;20216;-58
2023/09/22 15:39:50;;;;;;;3.20;0.55;;;17.10;99.90;;;;;;7302985;32;20108;-58
2023/09/22 15:43:52;;;;;;;0.98;0.52;;;16.90;99.90;;;;;;7298923;32;20112;-57
2023/09/22 15:47:53;;;;;;;1.77;0.45;;;15.60;99.90;;;;;;7303405;32;20119;-57
2023/09/22 15:51:56;;;;;;;1.75;0.47;;;14.60;99.90;;;;;;7300991;32;20134;-57
2023/09/22 15:55:58;;;;;;;2.37;0.45;;;13.90;99.90;;;;;;7300210;32;20766;-57
2023/09/22 16:00:00;;;;;;;2.55;0.60;;;13.60;99.90;;;;;;7308397;32;20180;-56
2023/09/22 16:04:02;;;;;;;3.20;0.43;;;13.50;99.90;;;;;;7308473;32;20493;-57
2023/09/22 16:08:04;;;;;;;5.00;1.05;;;13.40;99.90;;;;;;7303241;32;20108;-57
2023/09/22 16:12:06;;;;;;;1.15;0.70;;;13.30;99.90;;;;;;7300565;32;20167;-57
2023/09/22 16:16:09;;;;;;;2.05;0.70;;;13.20;99.90;;;;;;7299654;32;20116;-57
2023/09/22 16:20:11;;;;;;;1.85;0.60;;;13.20;99.90;;;;;;7302182;32;20134;-57
2023/09/22 16:24:13;;;;;;;3.08;0.80;;;13.10;99.90;;;;;;7307411;32;20270;-58
2023/09/22 16:28:15;;;;;;;1.62;0.60;;;13.10;99.90;;;;;;7314846;32;20135;-57
2023/09/22 16:32:18;;;;;;;3.33;0.70;;;13.20;99.90;;;;;;7309090;32;20636;-57
2023/09/22 16:36:20;;;;;;;2.65;0.75;;;13.30;99.90;;;;;;7297931;32;20135;-57
2023/09/22 16:40:21;;;;;;;3.72;0.80;;;13.30;99.90;;;;;;7303399;32;20214;-57
2023/09/22 16:44:24;;;;;;;3.70;0.60;;;13.30;99.90;;;;;;7301121;32;20222;-57
2023/09/22 16:48:26;;;;;;;1.92;0.55;;;13.30;99.90;;;;;;7309625;32;20555;-58
2023/09/22 16:52:27;;;;;;;2.08;0.60;;;13.20;99.90;;;;;;7310197;32;20120;-58
2023/09/22 16:56:29;;;;;;;3.53;0.82;;;13.30;99.90;;;;;;7306708;32;20138;-56
2023/09/22 17:00:31;;;;;;;3.65;1.00;;;13.20;99.90;;;;;;7301895;32;20860;-57
2023/09/22 17:04:33;;;;;;;2.70;1.00;;;13.10;99.90;;;;;;7296627;32;20270;-58
2023/09/22 17:08:35;;;;;;;2.10;0.70;;;13.20;99.90;;;;;;7315028;32;20127;-58
2023/09/22 17:12:37;;;;;;;2.15;0.80;;;13.10;99.90;;;;;;7296524;32;20214;-58
2023/09/22 17:16:38;;;;;;;3.78;0.80;;;13.20;99.90;;;;;;7305508;32;20108;-57
2023/09/22 17:20:41;;;;;;;1.77;0.60;;;13.30;99.90;;;;;;7299164;32;20127;-57
2023/09/22 17:24:42;;;;;;;3.37;0.70;;;13.20;99.90;;;;;;7293585;32;20155;-57
2023/09/22 17:28:45;;;;;;;1.25;0.45;;;13.30;99.90;;;;;;7305612;32;20535;-57
2023/09/22 17:32:48;;;;;;;3.08;0.52;;;13.30;99.90;;;;;;7312817;32;20582;-57
2023/09/22 17:36:50;;;;;;;4.93;0.90;;;13.20;99.90;;;;;;7309524;32;20104;-57
2023/09/22 17:40:51;;;;;;;3.53;0.57;;;13.10;99.90;;;;;;7308976;32;20151;-57
2023/09/22 17:44:53;;;;;;;2.37;0.68;;;13.10;99.90;;;;;;7292087;32;20342;-54
2023/09/22 17:48:55;;;;;;;2.90;0.82;;;13.10;99.90;;;;;;7306470;32;20135;-57
2023/09/22 17:52:57;;;;;;;1.70;0.70;;;13.00;99.90;;;;;;7314205;32;20285;-56
2023/09/22 17:57:02;;;;;;;2.15;0.70;;;13.00;99.90;;;;;;7308528;32;20120;-56
2023/09/22 18:01:05;;;;;;;2.60;0.60;;;13.10;99.90;;;;;;7309636;32;20147;-57
2023/09/22 18:05:07;;;;;;;10.10;1.30;;;13.10;99.90;;;;;;7309431;32;20169;-56
2023/09/22 18:09:14;;;;;;;3.17;1.17;;;13.10;99.90;;;;;;7309863;32;20655;-57
2023/09/22 18:13:16;;;;;;;2.70;1.10;;;13.10;99.90;;;;;;7308649;32;20103;-56
2023/09/22 18:17:20;;;;;;;3.05;1.00;;;13.20;99.90;;;;;;7310883;32;20586;-57
2023/09/22 18:21:25;;;;;;;1.35;0.80;;;13.20;99.90;;;;;;7307987;32;20140;-56
2023/09/22 18:25:26;;;;;;;1.95;0.77;;;13.20;99.90;;;;;;7307206;32;20242;-56
2023/09/22 18:29:28;;;;;;;1.92;0.80;;;13.20;99.90;;;;;;7308536;32;20333;-56
2023/09/22 18:33:31;;;;;;;2.70;1.02;;;13.20;99.90;;;;;;7307873;32;20168;-56
2023/09/22 18:37:32;;;;;;;3.25;1.33;;;13.20;99.90;;;;;;7304438;32;20107;-56
2023/09/22 18:41:34;;;;;;;2.87;1.20;;;13.20;99.90;;;;;;7304674;32;20519;-56
2023/09/22 18:45:37;;;;;;;2.90;1.10;;;13.20;99.90;;;;;;7304181;32;20103;-55
2023/09/22 18:49:39;;;;;;;2.92;1.05;;;13.10;99.90;;;;;;7304884;32;20516;-55
2023/09/22 18:53:41;;;;;;;5.95;1.27;;;13.00;99.90;;;;;;7304804;32;20108;-57
2023/09/22 18:57:45;;;;;;;3.22;1.30;;;12.90;99.90;;;;;;7301863;32;20198;-56
2023/09/22 19:01:47;;;;;;;1.95;1.00;;;12.80;99.90;;;;;;7303929;32;20115;-57
2023/09/22 19:05:49;;;;;;;2.17;1.20;;;12.70;99.90;;;;;;7305467;32;20458;-57
2023/09/22 19:09:50;;;;;;;2.50;1.30;;;12.60;99.90;;;;;;7304721;32;20245;-56
2023/09/22 19:13:52;;;;;;;2.72;1.00;;;12.50;99.90;;;;;;7299612;32;20155;-57
2023/09/22 19:17:54;;;;;;;3.80;1.27;;;12.50;99.90;;;;;;7300957;32;20260;-57
2023/09/22 19:21:56;;;;;;;2.92;1.35;;;12.50;99.90;;;;;;7298549;32;20249;-56
2023/09/22 19:25:59;;;;;;;1.75;0.93;;;12.60;99.90;;;;;;7290648;32;20165;-56
2023/09/22 19:30:01;;;;;;;2.40;1.42;;;12.60;99.90;;;;;;7301581;32;20107;-56
2023/09/22 19:34:03;;;;;;;4.40;1.40;;;12.60;99.90;;;;;;7300984;32;20197;-56
2023/09/22 19:38:05;;;;;;;3.90;1.12;;;12.70;99.90;;;;;;7302553;32;20450;-56
2023/09/22 19:42:06;;;;;;;3.08;1.00;;;12.80;99.90;;;;;;7302534;32;20126;-56
2023/09/22 19:46:08;;;;;;;2.80;1.10;;;12.80;99.90;;;;;;7301760;32;20212;-56
2023/09/22 19:50:13;;;;;;;3.75;1.30;;;12.80;99.90;;;;;;7304322;32;20105;-57
2023/09/22 19:54:15;;;;;;;5.82;1.70;;;12.80;99.90;;;;;;7304591;32;20180;-58
2023/09/22 19:58:16;;;;;;;3.20;1.70;;;12.80;99.90;;;;;;7299684;32;20170;-57
2023/09/22 20:02:18;;;;;;;7.10;1.80;;;12.80;99.90;;;;;;7306625;32;20130;-58
2023/09/22 20:06:21;;;;;;;3.95;1.90;;;12.90;99.90;;;;;;7306379;32;20782;-57
2023/09/22 20:10:23;;;;;;;3.80;1.83;;;13.00;99.90;;;;;;7301209;32;20711;-58
2023/09/22 20:14:24;;;;;;;2.65;1.17;;;13.10;99.90;;;;;;7298327;32;20127;-57
2023/09/22 20:18:27;;;;;;;1.77;0.60;;;13.00;99.90;;;;;;7289161;32;20116;-56
2023/09/22 20:22:29;;;;;;;2.97;0.73;;;12.80;99.90;;;;;;7299434;32;20230;-56
2023/09/22 20:26:31;;;;;;;2.15;0.70;;;12.70;99.90;;;;;;7299873;32;20108;-57
2023/09/22 20:30:33;;;;;;;3.95;0.77;;;12.60;99.90;;;;;;7303070;32;20115;-56
2023/09/22 20:34:35;;;;;;;1.10;0.60;;;12.50;99.90;;;;;;7302603;32;20250;-56
2023/09/22 20:38:36;;;;;;;1.73;0.88;;;12.40;99.90;;;;;;7288573;32;20104;-56
2023/09/22 20:42:38;;;;;;;1.67;1.00;;;12.40;99.90;;;;;;7306668;32;20175;-56
2023/09/22 20:46:41;;;;;;;1.20;0.98;;;12.30;99.90;;;;;;7300695;32;20111;-56
2023/09/22 20:50:44;;;;;;;1.27;1.00;;;12.20;99.90;;;;;;7301668;32;20194;-57
2023/09/22 20:54:47;;;;;;;1.40;1.12;;;12.10;99.90;;;;;;7297054;32;20398;-55
2023/09/22 20:58:51;;;;;;;4.57;1.02;;;12.10;99.90;;;;;;7303787;32;20223;-55
2023/09/22 21:02:53;;;;;;;2.15;1.02;;;12.10;99.90;;;;;;7299690;32;20125;-55